Time;durP1;ratioP1;P1;durP2;ratioP2;P2;SDS_P1;SDS_P2;PMS_P1;PMS_P2;Temp;Humidity;BMP_temperature;BMP_pressure;BME280_temperature;BME280_humidity;BME280_pressure;Samples;Min_cycle;Max_cycle;Signal;HPM_P1;HPM_P2
2022/12/25 00:02:12;;;;;;;43.85;21.83;;;5.90;99.90;;;;;;5015797;28;88297;-34
2022/12/25 00:04:37;;;;;;;63.63;24.90;;;5.90;99.90;;;;;;5013166;27;89969;-32
2022/12/25 00:07:03;;;;;;;41.92;20.25;;;5.90;99.90;;;;;;5015154;28;89655;-32
2022/12/25 00:09:29;;;;;;;43.63;21.23;;;5.90;99.90;;;;;;5014555;27;90064;-35
2022/12/25 00:11:54;;;;;;;52.63;22.10;;;6.00;99.90;;;;;;5017743;28;90110;-33
2022/12/25 00:14:20;;;;;;;55.60;21.75;;;6.00;99.90;;;;;;5016992;28;90668;-34
2022/12/25 00:16:45;;;;;;;59.97;23.65;;;6.00;99.90;;;;;;5018245;28;89157;-34
2022/12/25 00:19:11;;;;;;;38.70;20.88;;;6.10;99.90;;;;;;5018600;28;89484;-34
2022/12/25 00:21:37;;;;;;;51.60;21.88;;;6.10;99.90;;;;;;5018780;28;89465;-32
2022/12/25 00:24:03;;;;;;;51.25;22.55;;;6.10;99.90;;;;;;5019168;28;89513;-32
2022/12/25 00:26:28;;;;;;;37.25;18.17;;;6.20;99.90;;;;;;5018938;28;87555;-33
2022/12/25 00:28:56;;;;;;;40.20;21.55;;;6.20;99.90;;;;;;5018961;27;91575;-33
2022/12/25 00:31:23;;;;;;;52.95;22.25;;;6.20;99.90;;;;;;5018056;27;90368;-34
2022/12/25 00:33:50;;;;;;;51.50;21.77;;;6.30;99.90;;;;;;5019010;27;90544;-32
2022/12/25 00:36:18;;;;;;;46.92;20.80;;;6.30;99.90;;;;;;5018449;27;88360;-34
2022/12/25 00:38:45;;;;;;;66.70;23.40;;;6.30;99.90;;;;;;5013211;28;90944;-34
2022/12/25 00:41:13;;;;;;;44.00;21.77;;;6.30;99.90;;;;;;5018023;27;90874;-33
2022/12/25 00:43:40;;;;;;;42.88;19.95;;;6.30;99.90;;;;;;5018691;27;89443;-32
2022/12/25 00:46:07;;;;;;;53.60;22.02;;;6.30;99.90;;;;;;5019062;27;89804;-33
2022/12/25 00:48:34;;;;;;;42.65;20.40;;;6.30;99.90;;;;;;5018895;28;90205;-33
2022/12/25 00:51:03;;;;;;;59.95;22.23;;;6.30;99.90;;;;;;5016518;28;89764;-33
2022/12/25 00:53:29;;;;;;;43.95;20.98;;;6.30;99.90;;;;;;5018283;27;89386;-33
2022/12/25 00:55:57;;;;;;;47.38;19.52;;;6.30;99.90;;;;;;5018800;28;88953;-33
2022/12/25 00:58:24;;;;;;;;;;;6.30;99.90;;;;;;5019894;27;90509;-32
2022/12/25 01:00:50;;;;;;;59.05;21.05;;;6.30;99.90;;;;;;5020021;28;90575;-32
2022/12/25 01:03:16;;;;;;;55.45;21.17;;;6.30;99.90;;;;;;5018621;27;89635;-33
2022/12/25 01:05:43;;;;;;;55.55;21.17;;;6.30;99.90;;;;;;5018903;27;89335;-33
2022/12/25 01:08:08;;;;;;;48.00;21.02;;;6.20;99.90;;;;;;5017805;27;89850;-31
2022/12/25 01:10:34;;;;;;;52.75;17.48;;;6.20;99.90;;;;;;5018371;28;88547;-32
2022/12/25 01:13:00;;;;;;;38.53;18.48;;;6.20;99.90;;;;;;5020081;28;89325;-33
2022/12/25 01:15:25;;;;;;;44.35;19.40;;;6.20;99.90;;;;;;5021717;28;90131;-35
2022/12/25 01:17:51;;;;;;;48.55;21.15;;;6.30;99.90;;;;;;5021626;28;90193;-34
2022/12/25 01:20:17;;;;;;;41.05;19.52;;;6.30;99.90;;;;;;5020080;28;89987;-34
2022/12/25 01:22:43;;;;;;;52.50;20.83;;;6.30;99.90;;;;;;5021534;27;89163;-35
2022/12/25 01:25:11;;;;;;;41.15;19.27;;;6.30;99.90;;;;;;5021399;27;88361;-32
2022/12/25 01:27:38;;;;;;;45.33;18.30;;;6.30;99.90;;;;;;5021830;27;90242;-32
2022/12/25 01:30:05;;;;;;;44.15;19.77;;;6.40;99.90;;;;;;5021787;28;89991;-33
2022/12/25 01:32:30;;;;;;;50.13;18.58;;;6.30;99.90;;;;;;5021008;27;91341;-34
2022/12/25 01:34:56;;;;;;;46.60;20.80;;;6.20;99.90;;;;;;5021407;28;88596;-33
2022/12/25 01:37:23;;;;;;;51.83;19.60;;;6.30;99.90;;;;;;5021510;28;90231;-34
2022/12/25 01:39:49;;;;;;;43.80;18.92;;;6.20;99.90;;;;;;5020420;28;89897;-33
2022/12/25 01:42:20;;;;;;;47.92;18.20;;;6.30;99.90;;;;;;5021180;27;89618;-36
2022/12/25 01:44:46;;;;;;;42.83;18.50;;;6.30;99.90;;;;;;5021275;27;88678;-32
2022/12/25 01:47:13;;;;;;;56.33;21.23;;;6.30;99.90;;;;;;5021011;28;89651;-34
2022/12/25 01:49:41;;;;;;;53.65;20.00;;;6.40;99.90;;;;;;5021278;28;90545;-32
2022/12/25 01:52:11;;;;;;;46.08;19.00;;;6.40;99.90;;;;;;5021080;27;90887;-35
2022/12/25 01:54:42;;;;;;;45.17;19.83;;;6.50;99.90;;;;;;5021500;27;87879;-32
2022/12/25 01:57:14;;;;;;;46.85;19.25;;;6.50;99.90;;;;;;5019793;28;89363;-33
2022/12/25 01:59:41;;;;;;;52.53;20.83;;;6.50;99.90;;;;;;5021919;27;89329;-32
2022/12/25 02:02:07;;;;;;;43.22;18.65;;;6.60;99.90;;;;;;5021603;28;89601;-34
2022/12/25 02:04:40;;;;;;;45.95;19.40;;;6.60;99.90;;;;;;5021246;28;88181;-33
2022/12/25 02:07:14;;;;;;;48.38;19.27;;;6.60;99.90;;;;;;5020920;28;90032;-33
2022/12/25 02:09:40;;;;;;;40.42;18.73;;;6.50;99.90;;;;;;5020932;28;90364;-33
2022/12/25 02:12:07;;;;;;;46.15;19.90;;;6.60;99.90;;;;;;5021279;28;89690;-32
2022/12/25 02:14:35;;;;;;;37.13;18.60;;;6.60;99.90;;;;;;5020699;27;90312;-32
2022/12/25 02:17:22;;;;;;;36.33;17.83;;;6.60;99.90;;;;;;5020981;27;90310;-35
2022/12/25 02:20:20;;;;;;;52.67;20.20;;;6.60;99.90;;;;;;5020633;27;92497;-35
2022/12/25 02:23:00;;;;;;;45.13;19.77;;;6.60;99.90;;;;;;5020716;28;89711;-32
2022/12/25 02:25:41;;;;;;;35.38;16.65;;;6.60;99.90;;;;;;5009027;28;89927;-32
2022/12/25 02:28:10;;;;;;;45.72;18.00;;;6.70;99.90;;;;;;5020754;27;90686;-34
2022/12/25 02:30:42;;;;;;;35.25;18.20;;;6.60;99.90;;;;;;5020245;28;89704;-35
2022/12/25 02:36:21;;;;;;;44.95;18.92;;;6.70;99.90;;;;;;5020632;28;89516;-34
2022/12/25 02:41:40;;;;;;;43.35;18.20;;;6.70;99.90;;;;;;5018803;28;90642;-33
2022/12/25 03:06:41;;;;;;;32.77;19.03;;;7.00;99.90;;;;;;5020134;28;90189;-33
2022/12/25 03:12:33;;;;;;;37.65;17.60;;;7.10;99.90;;;;;;4976987;28;89255;-33
2022/12/25 03:17:43;;;;;;;36.13;18.77;;;7.10;99.90;;;;;;4994346;28;89793;-32
2022/12/25 03:28:23;;;;;;;35.67;16.30;;;7.10;99.90;;;;;;5019853;28;89321;-37
2022/12/25 03:31:12;;;;;;;38.40;17.67;;;7.10;99.90;;;;;;5020155;28;90078;-32
2022/12/25 03:36:40;;;;;;;38.28;16.02;;;7.20;99.90;;;;;;5018215;27;90487;-32
2022/12/25 04:37:58;;;;;;;39.22;19.95;;;7.40;99.90;;;;;;5019393;28;89584;-34
2022/12/25 04:40:23;;;;;;;45.78;22.13;;;7.50;99.90;;;;;;5018937;28;90134;-35
2022/12/25 04:42:50;;;;;;;34.10;20.35;;;7.50;99.90;;;;;;5018807;28;89710;-33
2022/12/25 04:45:16;;;;;;;48.13;21.83;;;7.60;99.90;;;;;;5019117;27;88564;-33
2022/12/25 04:47:42;;;;;;;50.13;22.20;;;7.60;99.90;;;;;;5017075;28;89786;-34
2022/12/25 04:50:08;;;;;;;46.25;22.30;;;7.60;99.90;;;;;;5019392;27;89301;-32
2022/12/25 04:52:36;;;;;;;35.28;21.65;;;7.70;99.90;;;;;;5018676;27;89982;-35
2022/12/25 04:55:02;;;;;;;43.95;22.80;;;7.70;99.90;;;;;;5018447;27;89701;-33
2022/12/25 04:57:27;;;;;;;42.47;21.40;;;7.80;99.90;;;;;;5018348;27;88790;-33
2022/12/25 04:59:53;;;;;;;40.35;24.88;;;7.80;99.90;;;;;;5018206;28;90098;-33
2022/12/25 05:02:19;;;;;;;49.35;24.00;;;7.90;99.90;;;;;;5019250;28;89550;-33
2022/12/25 05:04:45;;;;;;;45.85;23.02;;;7.90;99.90;;;;;;5018472;28;90436;-33
2022/12/25 05:07:11;;;;;;;41.60;18.95;;;7.90;99.90;;;;;;5018247;27;88127;-33
2022/12/25 05:09:40;;;;;;;37.92;22.08;;;8.00;99.90;;;;;;5019241;28;90693;-35
2022/12/25 05:12:06;;;;;;;40.85;22.30;;;7.90;99.90;;;;;;5018384;27;88265;-32
2022/12/25 05:14:32;;;;;;;45.20;21.83;;;8.00;99.90;;;;;;5018411;27;89516;-33
2022/12/25 05:16:58;;;;;;;41.75;21.63;;;8.00;99.90;;;;;;5018818;28;89407;-33
2022/12/25 05:19:23;;;;;;;37.55;21.92;;;8.00;99.90;;;;;;5018471;28;90441;-38
2022/12/25 05:21:49;;;;;;;44.58;21.92;;;8.00;99.90;;;;;;5017938;28;91045;-33
2022/12/25 05:24:14;;;;;;;34.88;19.65;;;8.00;99.90;;;;;;5017966;28;90535;-33
2022/12/25 05:26:40;;;;;;;34.05;20.17;;;8.10;99.90;;;;;;5018268;28;87781;-32
2022/12/25 05:29:06;;;;;;;40.42;19.63;;;8.10;99.90;;;;;;5018087;28;90151;-34
2022/12/25 05:31:31;;;;;;;38.42;19.67;;;8.10;99.90;;;;;;5017035;28;90697;-33
2022/12/25 05:33:57;;;;;;;31.35;19.42;;;8.10;99.90;;;;;;5018393;28;89263;-32
2022/12/25 05:36:22;;;;;;;38.33;22.10;;;8.20;99.90;;;;;;5017920;27;88491;-35
2022/12/25 05:38:49;;;;;;;47.40;23.25;;;8.10;99.90;;;;;;5018210;28;90518;-32
2022/12/25 05:41:14;;;;;;;40.72;21.10;;;8.10;99.90;;;;;;5018452;28;89493;-34
2022/12/25 05:43:40;;;;;;;31.40;20.45;;;8.10;99.90;;;;;;5017809;28;89192;-33
2022/12/25 05:46:08;;;;;;;32.40;21.02;;;8.10;99.90;;;;;;5017771;28;90220;-35
2022/12/25 05:48:35;;;;;;;45.40;21.30;;;8.10;99.90;;;;;;5018403;28;90295;-32
2022/12/25 05:51:13;;;;;;;36.15;22.00;;;8.10;99.90;;;;;;5016217;27;89471;-33
2022/12/25 05:53:40;;;;;;;36.37;22.33;;;8.10;99.90;;;;;;4999490;28;90052;-34
2022/12/25 05:56:07;;;;;;;43.80;22.48;;;8.20;99.90;;;;;;5018087;27;89015;-33
2022/12/25 05:58:35;;;;;;;27.90;21.08;;;8.20;99.90;;;;;;5018576;28;90035;-34
2022/12/25 06:01:01;;;;;;;47.77;23.43;;;8.20;99.90;;;;;;5021160;27;89549;-34
2022/12/25 06:03:27;;;;;;;29.05;19.20;;;8.20;99.90;;;;;;5020755;28;89784;-34
2022/12/25 06:05:53;;;;;;;37.95;20.85;;;8.30;99.90;;;;;;5021776;28;88043;-33
2022/12/25 06:08:19;;;;;;;33.08;20.15;;;8.30;99.90;;;;;;5021009;28;90263;-32
2022/12/25 06:10:44;;;;;;;39.65;20.67;;;8.30;99.90;;;;;;5020660;28;90651;-34
2022/12/25 06:13:10;;;;;;;31.75;21.70;;;8.30;99.90;;;;;;5020839;28;90569;-32
2022/12/25 06:15:40;;;;;;;42.17;21.23;;;8.30;99.90;;;;;;5026641;28;88297;-32
2022/12/25 06:18:05;;;;;;;39.90;21.77;;;8.30;99.90;;;;;;5020312;28;90028;-34
2022/12/25 06:20:31;;;;;;;40.40;22.83;;;8.30;99.90;;;;;;5020669;28;89665;-35
2022/12/25 06:22:57;;;;;;;40.63;22.77;;;8.30;99.90;;;;;;5020738;28;89451;-33
2022/12/25 06:25:22;;;;;;;33.72;22.55;;;8.30;99.90;;;;;;5021465;28;90131;-33
2022/12/25 06:27:48;;;;;;;41.83;21.58;;;8.30;99.90;;;;;;5020537;28;92546;-33
2022/12/25 06:30:13;;;;;;;37.22;21.45;;;8.40;99.90;;;;;;5020896;28;90107;-34
2022/12/25 06:32:39;;;;;;;38.28;24.02;;;8.40;99.90;;;;;;5020844;28;91202;-33
2022/12/25 06:35:05;;;;;;;34.47;21.35;;;8.40;99.90;;;;;;5020126;28;90194;-33
2022/12/25 06:37:31;;;;;;;36.60;21.70;;;8.40;99.90;;;;;;5020163;27;90299;-33
2022/12/25 06:39:56;;;;;;;43.08;24.02;;;8.40;99.90;;;;;;5020912;28;89535;-34
2022/12/25 06:42:22;;;;;;;36.25;22.02;;;8.50;99.90;;;;;;5020816;28;88620;-32
2022/12/25 06:44:48;;;;;;;38.22;20.42;;;8.60;99.90;;;;;;5021225;28;90297;-32
2022/12/25 06:47:13;;;;;;;39.70;23.42;;;8.50;99.90;;;;;;5020730;28;90770;-35
2022/12/25 06:49:39;;;;;;;38.38;22.23;;;8.50;99.90;;;;;;5020437;28;89259;-32
2022/12/25 06:52:05;;;;;;;45.63;23.90;;;8.50;99.90;;;;;;5020818;28;89597;-32
2022/12/25 06:54:30;;;;;;;39.75;19.05;;;8.50;99.90;;;;;;5020649;28;89575;-33
2022/12/25 06:56:56;;;;;;;39.60;20.70;;;8.50;99.90;;;;;;5020375;28;90138;-33
2022/12/25 06:59:21;;;;;;;37.03;20.05;;;8.60;99.90;;;;;;5020043;28;90347;-36
2022/12/25 07:01:53;;;;;;;37.13;21.67;;;8.50;99.90;;;;;;5019806;28;90765;-35
2022/12/25 07:04:37;;;;;;;34.65;21.10;;;8.50;99.90;;;;;;5021263;27;89320;-32
2022/12/25 07:07:04;;;;;;;44.33;20.05;;;8.50;99.90;;;;;;5020311;27;90325;-35
2022/12/25 07:09:30;;;;;;;32.92;20.05;;;8.50;99.90;;;;;;5019283;27;92040;-33
2022/12/25 07:12:19;;;;;;;32.45;19.63;;;8.50;99.90;;;;;;5019749;28;89857;-33
2022/12/25 07:14:48;;;;;;;30.58;19.92;;;8.50;99.90;;;;;;5020986;27;89101;-33
2022/12/25 07:17:18;;;;;;;36.10;19.23;;;8.50;99.90;;;;;;5020966;27;90177;-32
2022/12/25 07:19:48;;;;;;;31.27;19.55;;;8.50;99.90;;;;;;5020021;27;89752;-31
2022/12/25 07:22:14;;;;;;;23.45;18.33;;;8.40;99.90;;;;;;5020178;28;89572;-32
2022/12/25 07:24:40;;;;;;;26.52;16.85;;;8.40;99.90;;;;;;5019118;28;88783;-33
2022/12/25 07:27:07;;;;;;;23.45;16.15;;;8.40;99.90;;;;;;5021219;28;89873;-33
2022/12/25 07:29:32;;;;;;;24.80;15.40;;;8.40;99.90;;;;;;5020636;27;89720;-31
2022/12/25 07:31:58;;;;;;;28.13;16.55;;;8.30;99.90;;;;;;5026457;28;89609;-32
2022/12/25 07:34:24;;;;;;;31.42;17.88;;;8.30;99.90;;;;;;5019980;28;89502;-35
2022/12/25 07:36:49;;;;;;;25.52;15.00;;;8.30;99.90;;;;;;5024882;28;89145;-33
2022/12/25 07:39:15;;;;;;;28.88;16.60;;;8.30;99.90;;;;;;5020668;28;89358;-34
2022/12/25 07:41:42;;;;;;;26.83;16.08;;;8.20;99.90;;;;;;5020646;27;89766;-33
2022/12/25 07:44:07;;;;;;;22.23;16.33;;;8.30;99.90;;;;;;5019835;27;90295;-33
2022/12/25 07:46:33;;;;;;;22.48;15.25;;;8.30;99.90;;;;;;5019662;28;90445;-33
2022/12/25 07:48:59;;;;;;;27.17;16.58;;;8.30;99.90;;;;;;5018826;28;90870;-32
2022/12/25 07:51:25;;;;;;;24.13;15.48;;;8.40;99.90;;;;;;5019704;28;90653;-33
2022/12/25 07:53:51;;;;;;;22.92;15.57;;;8.30;99.90;;;;;;5019785;28;89636;-32
2022/12/25 07:56:18;;;;;;;26.42;16.17;;;8.40;99.90;;;;;;5019508;27;90170;-32
2022/12/25 07:58:45;;;;;;;30.83;17.60;;;8.40;99.90;;;;;;5018964;27;89084;-35
2022/12/25 08:01:18;;;;;;;22.65;15.48;;;8.40;99.90;;;;;;5018658;27;89679;-33
2022/12/25 08:03:49;;;;;;;23.23;13.45;;;8.40;99.90;;;;;;5019485;28;88442;-32
2022/12/25 08:06:14;;;;;;;18.73;14.05;;;8.40;99.90;;;;;;5015954;27;89921;-34
2022/12/25 08:08:40;;;;;;;24.48;14.23;;;8.40;99.90;;;;;;5019626;28;89716;-33
2022/12/25 08:11:08;;;;;;;24.27;15.50;;;8.40;99.90;;;;;;5019342;28;88705;-33
2022/12/25 08:13:34;;;;;;;20.13;14.57;;;8.50;99.90;;;;;;5017498;28;89395;-33
2022/12/25 08:16:02;;;;;;;26.60;14.50;;;8.50;99.90;;;;;;5019863;27;90198;-34
2022/12/25 08:18:29;;;;;;;18.33;13.13;;;8.40;99.90;;;;;;5018788;27;89453;-34
2022/12/25 08:20:55;;;;;;;22.85;13.77;;;8.40;99.90;;;;;;5018148;27;89244;-32
2022/12/25 08:23:21;;;;;;;21.95;13.77;;;8.40;99.90;;;;;;5018613;27;88515;-33
2022/12/25 08:25:46;;;;;;;25.00;12.38;;;8.50;99.90;;;;;;5019209;27;90522;-33
2022/12/25 08:28:12;;;;;;;20.58;14.07;;;8.40;99.90;;;;;;5019405;28;88984;-32
2022/12/25 08:30:38;;;;;;;20.98;13.23;;;8.40;99.90;;;;;;5019281;28;89523;-33
2022/12/25 08:33:04;;;;;;;20.50;12.52;;;8.50;99.90;;;;;;5005392;28;88184;-33
2022/12/25 08:35:33;;;;;;;18.58;13.55;;;8.50;99.90;;;;;;5019270;27;89839;-34
2022/12/25 08:37:59;;;;;;;19.25;13.60;;;8.50;99.90;;;;;;5018551;28;91170;-33
2022/12/25 08:40:24;;;;;;;20.23;12.68;;;8.50;99.90;;;;;;5017504;28;90124;-34
2022/12/25 08:42:50;;;;;;;18.27;14.13;;;8.50;99.90;;;;;;5019538;28;89835;-32
2022/12/25 08:45:15;;;;;;;19.50;14.02;;;8.50;99.90;;;;;;5018567;28;90025;-32
2022/12/25 08:47:41;;;;;;;20.25;13.05;;;8.50;99.90;;;;;;5019072;27;88790;-35
2022/12/25 08:50:07;;;;;;;22.65;15.15;;;8.40;99.90;;;;;;5019405;28;89553;-32
2022/12/25 08:52:33;;;;;;;26.30;14.65;;;8.40;99.90;;;;;;5017614;28;88728;-33
2022/12/25 08:54:59;;;;;;;26.48;14.20;;;8.40;99.90;;;;;;5019317;28;89725;-33
2022/12/25 08:57:24;;;;;;;18.25;12.52;;;8.40;99.90;;;;;;5018941;28;89726;-34
2022/12/25 08:59:50;;;;;;;14.73;11.82;;;8.40;99.90;;;;;;5018846;28;89585;-33
2022/12/25 09:02:17;;;;;;;20.27;12.98;;;8.40;99.90;;;;;;5019098;28;89221;-32
2022/12/25 09:04:45;;;;;;;18.63;13.10;;;8.40;99.90;;;;;;5018441;27;90797;-35
2022/12/25 09:07:11;;;;;;;27.70;14.48;;;8.50;99.90;;;;;;5017520;27;90074;-33
2022/12/25 09:09:36;;;;;;;18.70;13.52;;;8.50;99.90;;;;;;5015128;28;89667;-34
2022/12/25 09:12:02;;;;;;;16.38;11.95;;;8.50;99.90;;;;;;5017852;28;89141;-35
2022/12/25 09:14:27;;;;;;;15.55;11.40;;;8.50;99.90;;;;;;5018133;28;89215;-33
2022/12/25 09:16:53;;;;;;;24.20;13.43;;;8.50;99.90;;;;;;5017185;28;91231;-34
2022/12/25 09:19:20;;;;;;;20.15;12.93;;;8.50;99.90;;;;;;5018704;28;89980;-35
2022/12/25 09:21:46;;;;;;;20.88;13.15;;;8.60;99.90;;;;;;5019044;28;90097;-33
2022/12/25 09:24:12;;;;;;;18.02;11.20;;;8.50;99.90;;;;;;5018019;27;90831;-33
2022/12/25 09:26:37;;;;;;;18.92;13.13;;;8.60;99.90;;;;;;5017587;27;89563;-34
2022/12/25 09:29:03;;;;;;;16.98;11.65;;;8.70;99.90;;;;;;5018201;28;89642;-34
2022/12/25 09:31:29;;;;;;;20.92;12.55;;;8.70;99.90;;;;;;5060826;22;89456;-34
2022/12/25 09:33:56;;;;;;;32.00;12.48;;;8.70;99.90;;;;;;5014881;27;90205;-32
2022/12/25 09:36:23;;;;;;;22.10;12.57;;;8.80;99.90;;;;;;5010577;27;91174;-33
2022/12/25 09:38:48;;;;;;;22.80;11.73;;;8.70;99.90;;;;;;4999583;28;90397;-35
2022/12/25 09:41:26;;;;;;;16.35;10.55;;;8.70;99.90;;;;;;5013248;28;88654;-32
2022/12/25 09:44:05;;;;;;;12.88;11.57;;;8.80;99.90;;;;;;5016096;28;91973;-32
2022/12/25 09:46:46;;;;;;;19.10;12.07;;;8.80;99.90;;;;;;5011274;28;90044;-34
2022/12/25 09:49:20;;;;;;;15.90;12.50;;;8.70;99.90;;;;;;5002964;28;89615;-34
2022/12/25 09:51:52;;;;;;;20.27;12.32;;;8.80;99.90;;;;;;4998633;28;90490;-33
2022/12/25 09:54:40;;;;;;;17.60;12.77;;;8.80;99.90;;;;;;4981777;28;91555;-34
2022/12/25 09:57:13;;;;;;;21.15;12.82;;;8.90;99.90;;;;;;4981583;28;90082;-33
2022/12/25 09:59:41;;;;;;;17.17;10.38;;;8.90;99.90;;;;;;4981704;28;88468;-33
2022/12/25 10:02:39;;;;;;;17.17;12.23;;;8.90;99.90;;;;;;4982557;28;88248;-33
2022/12/25 10:05:44;;;;;;;17.20;10.95;;;8.90;99.90;;;;;;4981761;28;90150;-34
2022/12/25 10:08:37;;;;;;;22.63;12.88;;;9.00;99.90;;;;;;4980494;28;91377;-33
2022/12/25 10:11:21;;;;;;;18.55;11.35;;;9.00;99.90;;;;;;4977523;28;89746;-36
2022/12/25 10:14:23;;;;;;;18.05;10.23;;;9.10;99.90;;;;;;4981847;28;89100;-35
2022/12/25 10:16:48;;;;;;;14.50;10.82;;;9.10;99.90;;;;;;4982074;28;90251;-35
2022/12/25 10:19:23;;;;;;;22.90;13.18;;;9.10;99.90;;;;;;4980895;28;90098;-32
2022/12/25 10:21:54;;;;;;;20.58;11.60;;;9.10;99.90;;;;;;4992904;28;90581;-33
2022/12/25 10:24:37;;;;;;;20.40;11.00;;;9.10;99.90;;;;;;4989399;28;88672;-34
2022/12/25 10:27:12;;;;;;;13.73;12.05;;;9.10;99.90;;;;;;5010837;27;89118;-34
2022/12/25 10:29:39;;;;;;;15.20;12.05;;;9.10;99.90;;;;;;5010805;28;90248;-32
2022/12/25 10:32:05;;;;;;;24.38;13.48;;;9.10;99.90;;;;;;4999665;27;89851;-34
2022/12/25 10:34:32;;;;;;;17.95;13.13;;;9.10;99.90;;;;;;4997458;28;89303;-35
2022/12/25 10:36:58;;;;;;;20.83;12.77;;;9.00;99.90;;;;;;4997575;28;90673;-34
2022/12/25 10:39:25;;;;;;;17.05;12.63;;;9.10;99.90;;;;;;5000790;28;89971;-35
2022/12/25 10:42:17;;;;;;;15.52;12.10;;;9.00;99.90;;;;;;4998576;28;89246;-34
2022/12/25 10:45:04;;;;;;;15.45;11.68;;;9.00;99.90;;;;;;4984944;28;90056;-32
2022/12/25 10:47:33;;;;;;;19.23;12.80;;;9.00;99.90;;;;;;4998710;28;90928;-32
2022/12/25 10:50:00;;;;;;;;;;;9.00;99.90;;;;;;4999729;28;89500;-35
2022/12/25 10:52:27;;;;;;;18.83;13.82;;;9.00;99.90;;;;;;4992098;28;89090;-33
2022/12/25 10:54:54;;;;;;;17.45;11.55;;;9.00;99.90;;;;;;4978287;28;89091;-33
2022/12/25 10:57:22;;;;;;;17.52;12.27;;;9.10;99.90;;;;;;4978977;28;90538;-36
2022/12/25 10:59:56;;;;;;;20.30;12.82;;;9.10;99.90;;;;;;4978053;28;90663;-33
2022/12/25 11:02:26;;;;;;;21.38;13.48;;;9.20;99.90;;;;;;4977572;28;89150;-33
2022/12/25 11:05:04;;;;;;;15.65;11.98;;;9.20;99.90;;;;;;4976651;28;88578;-34
2022/12/25 11:07:32;;;;;;;13.00;10.10;;;9.20;99.90;;;;;;4978409;28;90351;-33
2022/12/25 11:10:01;;;;;;;15.40;11.90;;;9.20;99.90;;;;;;4977457;28;90846;-33
2022/12/25 11:12:35;;;;;;;15.32;10.95;;;9.20;99.90;;;;;;4976895;28;90119;-33
2022/12/25 11:15:23;;;;;;;15.65;11.38;;;9.20;99.90;;;;;;4976419;28;88248;-33
2022/12/25 11:17:48;;;;;;;19.63;12.70;;;9.30;99.90;;;;;;4977684;28;90681;-33
2022/12/25 11:20:18;;;;;;;15.15;10.40;;;9.30;99.90;;;;;;4977932;28;89353;-36
2022/12/25 11:22:46;;;;;;;14.23;10.23;;;9.30;99.90;;;;;;4977513;28;89912;-34
2022/12/25 11:25:13;;;;;;;11.85;9.85;;;9.40;99.90;;;;;;4978413;28;89885;-34
2022/12/25 11:27:39;;;;;;;10.50;8.95;;;9.40;99.90;;;;;;4978530;28;92080;-34
2022/12/25 11:30:05;;;;;;;12.82;8.43;;;9.40;99.90;;;;;;4978988;28;89164;-36
2022/12/25 11:32:44;;;;;;;17.73;11.57;;;9.50;99.90;;;;;;4978312;28;89473;-32
2022/12/25 11:35:11;;;;;;;;;;;9.50;99.90;;;;;;4978601;28;89973;-34
2022/12/25 11:37:53;;;;;;;16.92;11.23;;;9.50;99.90;;;;;;4979197;28;89777;-33
2022/12/25 11:40:28;;;;;;;21.48;11.15;;;9.40;99.90;;;;;;4978409;28;89400;-34
2022/12/25 11:42:56;;;;;;;15.15;11.50;;;9.50;99.90;;;;;;4977511;28;89081;-33
2022/12/25 11:45:34;;;;;;;24.15;12.48;;;9.50;99.90;;;;;;4977832;28;89192;-33
2022/12/25 11:48:10;;;;;;;17.48;10.80;;;9.50;99.90;;;;;;4977464;28;89413;-36
2022/12/25 11:50:44;;;;;;;14.52;10.90;;;9.50;99.90;;;;;;4983659;28;89803;-33
2022/12/25 11:53:34;;;;;;;14.18;10.10;;;9.50;99.90;;;;;;4983944;28;90437;-33
2022/12/25 11:56:18;;;;;;;15.88;11.20;;;9.50;99.90;;;;;;4977960;28;88000;-33
2022/12/25 11:58:53;;;;;;;16.15;11.32;;;9.50;99.90;;;;;;4977184;28;90959;-34
2022/12/25 12:01:29;;;;;;;17.70;11.27;;;9.50;99.90;;;;;;4978846;28;90451;-33
2022/12/25 12:03:56;;;;;;;15.73;11.20;;;9.50;99.90;;;;;;4977038;28;91132;-34
2022/12/25 12:06:59;;;;;;;14.25;10.70;;;9.50;99.90;;;;;;4977940;28;89232;-34
2022/12/25 12:09:47;;;;;;;13.27;11.05;;;9.50;99.90;;;;;;4977675;28;90344;-33
2022/12/25 12:12:36;;;;;;;17.45;13.70;;;9.50;99.90;;;;;;4977158;28;89608;-35
2022/12/25 12:15:10;;;;;;;12.65;10.40;;;9.50;99.90;;;;;;4977004;28;88871;-35
2022/12/25 12:17:36;;;;;;;15.38;11.32;;;9.50;99.90;;;;;;4977002;28;88622;-32
2022/12/25 12:20:32;;;;;;;11.98;10.15;;;9.50;99.90;;;;;;4977961;28;90000;-33
2022/12/25 12:23:01;;;;;;;14.82;10.63;;;9.60;99.90;;;;;;4972175;28;89135;-32
2022/12/25 12:25:27;;;;;;;14.50;10.73;;;9.50;99.90;;;;;;4976601;28;89714;-32
2022/12/25 12:27:56;;;;;;;10.90;9.50;;;9.50;99.90;;;;;;4977060;28;90120;-33
2022/12/25 12:30:24;;;;;;;;;;;9.50;99.90;;;;;;4978518;28;89392;-33
2022/12/25 12:32:57;;;;;;;16.92;12.63;;;9.50;99.90;;;;;;4978884;28;89409;-34
2022/12/25 12:35:41;;;;;;;11.80;10.50;;;9.50;99.90;;;;;;4992828;28;89397;-34
2022/12/25 12:38:18;;;;;;;21.35;10.95;;;9.50;99.90;;;;;;4996594;28;88936;-33
2022/12/25 12:40:52;;;;;;;13.38;10.85;;;9.50;99.90;;;;;;4995671;28;90365;-32
2022/12/25 12:43:41;;;;;;;15.68;13.48;;;9.40;99.90;;;;;;4993567;28;89991;-36
2022/12/25 12:46:20;;;;;;;14.77;11.70;;;9.40;99.90;;;;;;4996275;28;89567;-34
2022/12/25 12:48:49;;;;;;;16.75;11.10;;;9.40;99.90;;;;;;4995270;28;88962;-35
2022/12/25 12:51:26;;;;;;;15.23;11.63;;;9.40;99.90;;;;;;4994578;28;91031;-31
2022/12/25 12:54:05;;;;;;;15.80;10.90;;;9.30;99.90;;;;;;4995619;28;91373;-33
2022/12/25 12:56:31;;;;;;;13.65;9.30;;;9.40;99.90;;;;;;4996435;28;90324;-33
2022/12/25 12:58:56;;;;;;;17.38;11.15;;;9.40;99.90;;;;;;5013334;28;89159;-34
2022/12/25 13:01:25;;;;;;;14.02;10.40;;;9.30;99.90;;;;;;5015160;28;90860;-34
2022/12/25 13:04:12;;;;;;;14.00;10.23;;;9.30;99.90;;;;;;5017312;28;89459;-32
2022/12/25 13:07:15;;;;;;;18.23;11.13;;;9.20;99.90;;;;;;5023185;27;88153;-33
2022/12/25 13:10:18;;;;;;;16.88;12.15;;;9.20;99.90;;;;;;4999244;28;89991;-34
2022/12/25 13:12:44;;;;;;;16.52;10.95;;;9.20;99.90;;;;;;5012273;28;90246;-33
2022/12/25 13:15:12;;;;;;;20.42;11.43;;;9.20;99.90;;;;;;5004266;28;89545;-32
2022/12/25 13:17:43;;;;;;;14.38;11.35;;;9.20;99.90;;;;;;4989496;28;89478;-34
2022/12/25 13:20:22;;;;;;;13.98;11.38;;;9.20;99.90;;;;;;4988684;28;89166;-33
2022/12/25 13:22:48;;;;;;;13.20;9.85;;;9.10;99.90;;;;;;4989692;28;90635;-33
2022/12/25 13:25:20;;;;;;;12.07;9.73;;;9.10;99.90;;;;;;4989158;28;90156;-33
2022/12/25 13:27:55;;;;;;;14.38;10.65;;;9.10;99.90;;;;;;4989029;28;89607;-33
2022/12/25 13:30:21;;;;;;;13.90;11.40;;;9.10;99.90;;;;;;4989527;28;88496;-33
2022/12/25 13:32:48;;;;;;;15.95;10.93;;;9.10;99.90;;;;;;4987231;28;90323;-32
2022/12/25 13:35:15;;;;;;;14.90;10.20;;;9.10;99.90;;;;;;4988818;28;89639;-33
2022/12/25 13:37:41;;;;;;;12.15;10.10;;;9.10;99.90;;;;;;4989521;28;89447;-32
2022/12/25 13:40:21;;;;;;;12.57;10.02;;;9.10;99.90;;;;;;4989588;28;88744;-34
2022/12/25 13:42:48;;;;;;;15.60;10.45;;;9.00;99.90;;;;;;4987952;28;90586;-35
2022/12/25 13:45:25;;;;;;;10.45;9.38;;;9.00;99.90;;;;;;4988184;28;90484;-33
2022/12/25 13:47:51;;;;;;;14.65;12.32;;;9.00;99.90;;;;;;4982428;28;90432;-35
2022/12/25 13:50:28;;;;;;;16.25;12.45;;;9.00;99.90;;;;;;4990998;28;87617;-34
2022/12/25 13:52:56;;;;;;;20.70;14.02;;;9.00;99.90;;;;;;5002035;28;90501;-33
2022/12/25 13:55:27;;;;;;;23.33;13.10;;;9.00;99.90;;;;;;5006388;28;88978;-33
2022/12/25 13:57:58;;;;;;;13.40;11.32;;;9.00;99.90;;;;;;5007911;28;89508;-32
2022/12/25 14:00:27;;;;;;;16.98;14.20;;;9.00;99.90;;;;;;5012904;27;88223;-34
2022/12/25 14:02:53;;;;;;;18.25;12.27;;;8.90;99.90;;;;;;5007904;28;90444;-32
2022/12/25 14:05:24;;;;;;;17.77;13.30;;;8.90;99.90;;;;;;5006897;27;89921;-33
2022/12/25 14:07:51;;;;;;;16.75;13.75;;;8.90;99.90;;;;;;5004864;28;89370;-32
2022/12/25 14:10:18;;;;;;;26.63;16.27;;;8.90;99.90;;;;;;5011605;27;88154;-33
2022/12/25 14:12:48;;;;;;;15.88;13.98;;;8.90;99.90;;;;;;5003856;28;90073;-33
2022/12/25 14:15:17;;;;;;;18.17;14.55;;;8.90;99.90;;;;;;5004300;28;89917;-33
2022/12/25 14:17:43;;;;;;;18.02;14.20;;;8.90;99.90;;;;;;5012514;28;88463;-34
2022/12/25 14:20:23;;;;;;;17.60;14.15;;;8.80;99.90;;;;;;5014026;27;87981;-33
2022/12/25 14:22:52;;;;;;;17.10;13.35;;;8.90;99.90;;;;;;5003595;28;89805;-33
2022/12/25 14:25:19;;;;;;;15.32;13.73;;;8.80;99.90;;;;;;5001791;28;91014;-35
2022/12/25 14:27:49;;;;;;;15.13;13.57;;;8.80;99.90;;;;;;5010107;28;89173;-32
2022/12/25 14:30:16;;;;;;;17.48;13.90;;;8.70;99.90;;;;;;5029314;27;87962;-35
2022/12/25 14:32:45;;;;;;;19.60;14.95;;;8.80;99.90;;;;;;5026559;27;90154;-35
2022/12/25 14:35:12;;;;;;;23.23;13.77;;;8.70;99.90;;;;;;5030370;27;89237;-35
2022/12/25 14:37:40;;;;;;;18.08;12.80;;;8.80;99.90;;;;;;5031805;28;89160;-34